Latest Coastal Weather Observations for Townsville

IDQ60701

Issued at 7:22 am EST Friday 1 July 2016 (issued every 10 minutes, with the page automatically refreshed every 10 minutes)

About coastal observations | Map of coastal stations | Coastal observations for QLD | Marine services | Other Formats
Station Details ID: 032040 Name: TOWNSVILLE AERO Lat: -19.25 Lon: 146.77 Height: 4.34 m
Data from the previous 72 hours. | See also: Recent months at Townsville
Date/Time
EST
Temp
°C
Wind Pressure Rain since
9am
mm
Weather Cloud Vis
km
Sea
Height
m
Swell
Dir  Spd
kts
Gust
kts
hPa Trend Height
m
Period
s
Dir
01/07:00am 17.2 CALM 0 0 1019.4 - 0.0 - Partly cloudy 10 - - - -
01/06:30am 17.3 NNW 2 5 1019.1 - 0.0 - Mostly clear 10 - - - -
01/06:00am 16.8 CALM 0 0 1018.7 S 0.0 - Mostly cloudy 10 - - - -
01/05:30am 16.2 CALM 0 0 1018.5 - 0.0 - Cloudy 10 - - - -
01/05:00am 15.9 CALM 0 0 1018.2 - 0.0 - Partly cloudy 10 - - - -
01/04:30am 16.3 CALM 0 0 1018.0 - 0.0 - Partly cloudy 10 - - - -
01/04:00am 16.6 CALM 0 0 1018.1 - 0.0 - Partly cloudy 10 - - - -
01/03:30am 16.6 CALM 0 0 1018.2 - 0.0 - Partly cloudy 10 - - - -
01/03:00am 16.1 CALM 0 0 1018.3 F 0.0 - Mostly clear 10 - - - -
01/02:30am 16.0 CALM 0 0 1018.4 - 0.0 - - 9 - - - -
01/02:00am 16.9 CALM 0 0 1018.6 - 0.0 - - 10 - - - -
01/01:30am 17.0 CALM 0 0 1018.9 - 0.0 - Partly cloudy 10 - - - -
01/01:00am 17.1 CALM 0 0 1019.1 - 0.0 - - 10 - - - -
01/12:30am 17.4 CALM 0 0 1019.3 - 0.0 - - 10 - - - -
01/12:00am 18.1 CALM 0 0 1019.3 F 0.0 - Mostly clear 10 - - - -
 
Date/Time
EST
Temp
°C
Wind Pressure Rain since
9am
mm
Weather Cloud Vis
km
Sea
Height
m
Swell
Dir  Spd
kts
Gust
kts
hPa Trend Height
m
Period
s
Dir
30/11:30pm 18.2 CALM 0 0 1019.4 - 0.0 - - 10 - - - -
30/11:00pm 19.1 CALM 0 0 1019.5 - 0.0 - - 10 - - - -
30/10:30pm 19.6 S 5 6 1019.6 - 0.0 - - 10 - - - -
30/10:00pm 20.0 S 5 6 1019.8 - 0.0 - - 10 - - - -
30/09:30pm 20.3 S 5 7 1019.7 - 0.0 - - 10 - - - -
30/09:00pm 21.1 ESE 6 8 1019.8 F 0.0 - - 10 - - - -
30/08:30pm 21.4 E 7 10 1019.7 - 0.0 - - 10 - - - -
30/08:00pm 21.9 ENE 8 10 1019.5 - 0.0 - Partly cloudy 10 - - - -
30/07:30pm 22.5 E 6 7 1019.3 - 0.0 - Cloudy 10 - - - -
30/07:00pm 22.6 E 6 8 1019.0 - 0.0 - Cloudy 10 - - - -
30/06:30pm 22.6 ENE 7 8 1018.7 - 0.0 - Partly cloudy 10 - - - -
30/06:00pm 22.8 ENE 7 9 1018.5 S 0.0 - Cloudy 10 - - - -
30/05:30pm 23.0 ENE 6 8 1018.2 - 0.0 - Mostly clear 10 - - - -
30/05:00pm 23.5 NE 7 8 1017.9 - 0.0 - Mostly clear 10 - - - -
30/04:30pm 24.0 ENE 8 10 1017.6 - 0.0 - Mostly clear 10 - - - -
30/04:00pm 25.3 NE 8 10 1017.6 - 0.0 - Mostly clear 10 - - - -
30/03:30pm 25.0 E 7 9 1017.6 - 0.0 - Mostly clear 10 - - - -
30/03:00pm 24.8 ESE 7 10 1017.7 R 0.0 - Cloudy 10 - - - -
30/02:30pm 25.6 E 8 12 1017.8 - 0.0 - Mostly clear 10 - - - -
30/02:00pm 24.8 ESE 8 13 1018.0 - 0.0 - Partly cloudy 10 - - - -
30/01:30pm 24.6 ESE 8 10 1018.3 - 0.0 - Mostly clear 10 - - - -
30/01:00pm 24.6 ENE 7 13 1018.8 - 0.0 - Partly cloudy 10 - - - -
30/12:30pm 23.9 ESE 6 10 1019.5 - 0.0 - Partly cloudy 10 - - - -
30/12:00pm 24.9 SE 8 12 1019.8 F 0.0 - Cloudy 10 - - - -
30/11:30am 24.3 SE 7 12 1020.3 - 0.0 - Mostly clear 10 - - - -
30/11:00am 23.4 SSE 8 11 1020.6 - 0.0 - Mostly clear 10 - - - -
30/10:30am 23.4 SE 6 10 1020.9 - 0.0 - Mostly clear 10 - - - -
30/10:00am 22.1 SSW 5 8 1021.3 - 0.0 - Mostly clear 10 - - - -
30/09:30am 21.0 SSW 4 6 1021.5 - 0.0 - Mostly clear 10 - - - -
30/09:00am 20.2 S 4 6 1021.4 F 0.0 - Mostly clear 10 - - - -
30/08:30am 18.8 CALM 0 0 1021.3 - 0.0 - Mostly clear 10 - - - -
30/08:00am 17.2 CALM 0 0 1021.0 - 0.0 - Mostly clear 10 - - - -
30/07:30am 15.2 CALM 0 0 1020.7 - 0.0 - Mostly clear 10 - - - -
30/07:00am 13.9 CALM 0 0 1020.5 - 0.0 - Mostly clear 10 - - - -
30/06:30am 13.4 CALM 0 0 1020.4 - 0.0 - Mostly clear 10 - - - -
30/06:00am 13.6 WNW 2 4 1020.1 F 0.0 - Mostly clear 10 - - - -
30/05:30am 13.2 CALM 0 0 1019.8 - 0.0 - - 10 - - - -
30/05:00am 12.7 CALM 0 0 1019.8 - 0.0 - - 10 - - - -
30/04:30am 12.7 WNW 4 5 1019.9 - 0.0 - - 10 - - - -
30/04:00am 14.1 CALM 0 0 1019.8 - 0.0 - - 10 - - - -
30/03:30am 14.2 SSW 4 6 1019.7 - 0.0 - - 10 - - - -
30/03:00am 13.7 WNW 4 5 1020.1 F 0.0 - - 10 - - - -
30/02:30am 14.8 S 6 6 1020.3 - 0.0 - - 10 - - - -
30/02:00am 14.1 SSE 3 5 1020.8 - 0.0 - Partly cloudy 10 - - - -
30/01:30am 15.1 CALM 0 0 1021.2 - 0.0 - Partly cloudy 10 - - - -
30/01:00am 16.0 S 4 5 1021.7 - 0.0 - Partly cloudy 10 - - - -
30/12:30am 16.1 WSW 3 5 1021.9 - 0.0 - - 10 - - - -
30/12:00am 15.3 WNW 1 4 1022.1 F 0.0 - - 10 - - - -
 
Date/Time
EST
Temp
°C
Wind Pressure Rain since
9am
mm
Weather Cloud Vis
km
Sea
Height
m
Swell
Dir  Spd
kts
Gust
kts
hPa Trend Height
m
Period
s
Dir
29/11:30pm 16.4 SSE 5 7 1022.2 - 0.0 - - 10 - - - -
29/11:00pm 16.9 SSE 8 9 1022.3 - 0.0 - - 10 - - - -
29/10:30pm 16.7 SE 7 10 1022.6 - 0.0 - - 10 - - - -
29/10:00pm 16.9 SE 7 8 1022.5 - 0.0 - Partly cloudy 10 - - - -
29/09:30pm 16.9 SSE 7 9 1022.7 - 0.0 - - 10 - - - -
29/09:00pm 17.5 SE 6 8 1022.6 S 0.0 - - 10 - - - -
29/08:30pm 17.5 SSE 6 7 1022.4 - 0.0 - - 10 - - - -
29/08:00pm 18.0 SSE 6 7 1022.1 - 0.0 - - 10 - - - -
29/07:30pm 18.9 ESE 7 10 1021.8 - 0.0 - - 10 - - - -
29/07:00pm 18.9 E 7 9 1021.5 - 0.0 - - 10 - - - -
29/06:30pm 18.7 E 7 10 1021.0 - 0.0 - - 10 - - - -
29/06:00pm 19.3 E 8 10 1021.0 F 0.0 - - 10 - - - -
29/05:30pm 20.0 ENE 9 13 1020.9 - 0.0 - Mostly clear 10 - - - -
29/05:00pm 20.9 ENE 10 12 1020.8 - 0.0 - Mostly clear 10 - - - -
29/04:30pm 21.6 ENE 11 15 1020.7 - 0.0 - Mostly clear 10 - - - -
29/04:00pm 22.4 NE 11 14 1020.6 - 0.0 - Mostly clear 10 - - - -
29/03:30pm 22.4 NE 11 15 1020.5 - 0.0 - Mostly clear 10 - - - -
29/03:00pm 22.5 NE 10 14 1020.6 S 0.0 - Mostly clear 10 - - - -
29/02:30pm 21.8 NE 9 15 1020.7 - 0.0 - Mostly clear 10 - - - -
29/02:00pm 21.8 ENE 8 13 1020.9 - 0.0 - Mostly clear 10 - - - -
29/01:30pm 21.5 NNE 8 16 1021.4 - 0.0 - Mostly clear 10 - - - -
29/01:00pm 21.1 ESE 4 8 1021.9 - 0.0 - Mostly clear 10 - - - -
29/12:30pm 20.8 SSE 6 9 1022.4 - 0.0 - Mostly clear 10 - - - -
29/12:00pm 20.0 SE 5 8 1022.9 F 0.0 - - 10 - - - -
29/11:30am 19.5 ESE 5 9 1023.4 - 0.0 - - 10 - - - -
29/11:00am 19.0 SE 5 8 1023.7 - 0.0 - - 10 - - - -
29/10:30am 18.2 SSW 6 10 1024.0 - 0.0 - - 10 - - - -
29/10:00am 18.0 S 8 11 1024.1 - 0.0 - - 10 - - - -
29/09:30am 17.4 SW 7 11 1024.0 - 0.0 - - 10 - - - -
29/09:27am 17.1 SW 8 11 1024.0 - 0.0 - - 10 - - - -
29/09:00am 16.6 SW 8 10 1024.1 F 0.0 - - 10 - - - -
29/08:30am 15.9 SSW 7 8 1024.1 - 0.0 - - 10 - - - -
29/08:00am 14.6 SSW 6 7 1023.9 - 0.0 - - 10 - - - -
29/07:30am 13.2 SSW 6 8 1023.7 - 0.0 - - 10 - - - -
29/07:00am 11.7 CALM 0 0 1023.3 - 0.0 - - 10 - - - -
29/06:30am 12.1 SSW 3 6 1023.1 - 0.0 - - 10 - - - -
29/06:00am 12.4 SSW 2 4 1023.0 F 0.0 - - 10 - - - -
29/05:30am 12.9 SE 4 6 1022.9 - 0.0 - - 10 - - - -
29/05:00am 12.4 SSE 5 5 1022.7 - 0.0 - - 10 - - - -
29/04:30am 13.1 SSE 7 7 1022.7 - 0.0 - - 10 - - - -
29/04:00am 13.8 SSE 5 7 1022.8 - 0.0 - - 10 - - - -
29/03:30am 14.8 SSE 10 14 1022.9 - 0.0 - - 10 - - - -
29/03:00am 14.2 SSE 5 8 1022.9 R 0.0 - - 10 - - - -
29/02:30am 15.0 S 6 10 1022.9 - 0.0 - - 10 - - - -
29/02:00am 15.0 SSE 8 11 1022.9 - 0.0 - - 10 - - - -
29/01:30am 15.5 SE 7 8 1023.1 - 0.0 - - 10 - - - -
29/01:00am 15.0 S 5 6 1023.3 - 0.0 - - 10 - - - -
29/12:30am 15.0 S 7 9 1023.2 - 0.0 - - 10 - - - -
29/12:00am 15.1 S 8 9 1023.3 R 0.0 - - 10 - - - -
 
Date/Time
EST
Temp
°C
Wind Pressure Rain since
9am
mm
Weather Cloud Vis
km
Sea
Height
m
Swell
Dir  Spd
kts
Gust
kts
hPa Trend Height
m
Period
s
Dir
28/11:30pm 15.2 S 7 8 1023.2 - 0.0 - - - - - - -
28/11:00pm 16.1 SSE 5 6 1023.3 - 0.0 - - - - - - -
28/10:30pm 17.5 S 10 14 1023.4 - 0.0 - - - - - - -
28/10:00pm 17.9 S 11 15 1023.1 - 0.0 - - - - - - -
28/09:30pm 17.9 S 6 10 1023.1 - 0.0 - - - - - - -
28/09:00pm 18.4 S 8 10 1022.7 R 0.0 - - 10 - - - -
28/08:30pm 19.6 S 10 13 1022.3 - 0.0 - - 10 - - - -
28/08:00pm 19.6 S 9 13 1021.9 - 0.0 - - - - - - -
28/07:30pm 20.3 S 7 10 1021.5 - 0.0 - - 10 - - - -
28/07:00pm 21.0 S 10 14 1021.1 - 0.0 - - 10 - - - -
28/06:30pm 20.7 S 9 13 1020.6 - 0.0 - - 10 - - - -
28/06:00pm 21.5 SSE 7 10 1020.2 R 0.0 - - 10 - - - -
28/05:30pm 22.6 S 9 11 1019.8 - 0.0 - - 10 - - - -
28/05:00pm 23.6 S 10 13 1019.4 - 0.0 - - 10 - - - -
28/04:30pm 24.0 SSW 12 16 1019.1 - 0.0 - - 10 - - - -
28/04:00pm 24.3 S 14 17 1018.9 - 0.0 - - 10 - - - -
28/03:30pm 24.8 SSW 13 18 1018.8 - 0.0 - - 10 - - - -
28/03:00pm 25.3 SSW 11 17 1018.7 R 0.0 - - 10 - - - -
28/02:30pm 24.9 SSW 12 16 1018.5 - 0.0 - - 10 - - - -
28/02:00pm 25.0 SSW 12 16 1018.7 - 0.0 - - 10 - - - -
28/01:30pm 24.4 SSW 13 19 1019.0 - 0.0 - - 10 - - - -
28/01:00pm 23.8 SSW 15 19 1019.4 - 0.0 - - 10 - - - -
28/12:30pm 23.3 SSW 15 19 1019.8 - 0.0 - - 10 - - - -
28/12:00pm 23.2 SSW 15 20 1020.1 R 0.0 - - 10 - - - -
28/11:30am 22.4 SW 15 20 1020.4 - 0.0 - - 10 - - - -
28/11:00am 21.3 SW 15 19 1020.7 - 0.0 - - 10 - - - -
28/10:30am 20.8 SW 16 19 1020.9 - 0.0 - Mostly clear 10 - - - -
28/10:00am 20.5 SSW 15 18 1021.0 - 0.0 - Mostly clear 10 - - - -
28/09:30am 19.4 SW 17 20 1021.0 - 0.0 - Mostly clear 10 - - - -
28/09:00am 18.8 SSW 18 23 1021.0 R 0.0 - Mostly clear 10 - - - -
28/08:30am 18.2 SW 17 25 1020.8 - 0.0 - - 10 - - - -
28/08:00am 17.8 SSW 19 26 1020.5 - 0.0 - Mostly clear 10 - - - -
28/07:30am 17.7 SSW 15 21 1020.2 - 0.0 - Mostly clear 10 - - - -

Other Formats:

Comma delimited format used in spreadsheet applications
http://www.bom.gov.au/fwo/IDQ60701/IDQ60701.94294.axf

JavaScript Object Notation format (JSON) in row-major order
http://www.bom.gov.au/fwo/IDQ60701/IDQ60701.94294.json